Terminal Aerodrome Forecast
Issued by NWS Springfield, MO

Home | Current Version | Previous Version | Text Only | Print | Product List | Glossary On
Versions: 1 2 3 4 5 6 7 8 9 10 11 12 13 14 15 16 17
730
FTUS43 KSGF 251120
TAFSGF
TAF
KSGF 251120Z 2512/2612 14005KT P6SM SKC
     FM252000 18006KT P6SM SKC
     FM260000 15008KT P6SM FEW250
     FM260400 14010KT P6SM FEW200 WS020/20040KT=

USA.gov is the U.S. government's official web portal to all federal, state and local government web resources and services.